createdAt,value
2018-04-02T00:00:08.054Z,102.67
2018-04-02T00:02:36.301Z,105.47
2018-04-02T00:05:03.754Z,90.27
2018-04-02T00:07:31.270Z,96.40
2018-04-02T00:12:32.729Z,85.37
2018-04-02T00:15:00.189Z,96.03
2018-04-02T00:17:27.649Z,103.73
2018-04-02T00:19:55.144Z,84.60
2018-04-02T00:22:22.621Z,90.80
2018-04-02T00:24:50.089Z,89.00
2018-04-02T00:27:17.565Z,86.37
2018-04-02T00:29:45.022Z,100.33
2018-04-02T00:32:12.502Z,90.83
2018-04-02T00:34:39.977Z,103.13
2018-04-02T00:37:07.461Z,90.60
2018-04-02T00:39:34.953Z,86.27
2018-04-02T00:42:03.193Z,94.13
2018-04-02T00:44:30.665Z,89.93
2018-04-02T00:46:58.165Z,96.73
2018-04-02T00:49:25.668Z,95.80
2018-04-02T00:51:53.100Z,110.40
2018-04-02T00:54:20.582Z,99.20
2018-04-02T00:56:48.041Z,96.30
2018-04-02T00:59:15.558Z,100.47
2018-04-02T01:01:43.037Z,100.60
2018-04-02T01:04:10.493Z,103.90
2018-04-02T01:06:37.973Z,92.30
2018-04-02T01:09:05.464Z,107.40
2018-04-02T01:11:33.705Z,89.53
2018-04-02T01:14:01.166Z,101.43
2018-04-02T01:16:28.873Z,89.13
2018-04-02T01:18:56.892Z,94.87
2018-04-02T01:21:24.377Z,92.17
2018-04-02T01:23:51.837Z,90.73
2018-04-02T01:26:19.313Z,89.90
2018-04-02T01:28:47.537Z,86.80
2018-04-02T01:31:15.106Z,94.50
2018-04-02T01:33:42.586Z,107.50
2018-04-02T01:36:10.053Z,93.63
2018-04-02T01:38:37.528Z,90.53
2018-04-02T01:41:05.782Z,81.60
2018-04-02T01:43:33.237Z,84.07
2018-04-02T01:46:00.721Z,93.37
2018-04-02T01:48:28.188Z,99.17
2018-04-02T01:50:55.658Z,90.13
2018-04-02T01:53:23.129Z,88.90
2018-04-02T01:55:50.626Z,84.37
2018-04-02T01:58:18.082Z,76.93
2018-04-02T02:00:45.581Z,78.17
2018-04-02T02:03:13.853Z,89.53
2018-04-02T02:05:41.365Z,94.00
2018-04-02T02:08:08.852Z,87.57
2018-04-02T02:10:36.337Z,82.67
2018-04-02T02:13:03.793Z,70.30
2018-04-02T02:15:31.244Z,82.93
2018-04-02T02:17:59.492Z,110.60
2018-04-02T02:20:26.966Z,115.23
2018-04-02T02:22:54.456Z,110.77
2018-04-02T02:25:21.913Z,109.33
2018-04-02T02:27:49.374Z,107.03
2018-04-02T02:30:16.936Z,100.10
2018-04-02T02:32:44.411Z,117.00
2018-04-02T02:35:11.907Z,127.73
2018-04-02T02:37:39.386Z,109.43
2018-04-02T02:40:07.641Z,111.63
2018-04-02T02:42:35.110Z,99.30
2018-04-02T02:45:03.375Z,106.37
2018-04-02T02:47:30.840Z,120.03
2018-04-02T02:49:58.329Z,113.40
2018-04-02T02:52:25.826Z,99.63
2018-04-02T02:54:53.294Z,107.43
2018-04-02T02:57:20.786Z,95.27
2018-04-02T02:59:49.055Z,103.80
2018-04-02T03:02:17.344Z,104.30
2018-04-02T03:04:45.572Z,103.00
2018-04-02T03:07:13.073Z,102.83
2018-04-02T03:09:41.331Z,114.87
2018-04-02T03:12:08.797Z,102.57
2018-04-02T03:14:36.272Z,94.43
2018-04-02T03:17:04.488Z,93.53
2018-04-02T03:19:31.973Z,92.10
2018-04-02T03:21:59.429Z,97.33
2018-04-02T03:24:26.905Z,100.80
2018-04-02T03:26:54.365Z,97.53
2018-04-02T03:29:21.841Z,90.93
2018-04-02T03:31:50.091Z,86.97
2018-04-02T03:34:17.559Z,87.33
2018-04-02T03:36:45.041Z,103.47
2018-04-02T03:39:12.500Z,84.07
2018-04-02T03:41:40.617Z,82.77
2018-04-02T03:44:07.465Z,98.97
2018-04-02T03:46:34.936Z,99.70
2018-04-02T03:49:02.389Z,84.03
2018-04-02T03:51:29.856Z,79.73
2018-04-02T03:53:57.341Z,83.13
2018-04-02T03:56:24.836Z,89.80
2018-04-02T03:58:52.360Z,78.13
2018-04-02T04:01:20.590Z,94.40
2018-04-02T04:03:48.067Z,73.23
2018-04-02T04:06:15.560Z,94.57
2018-04-02T04:08:43.047Z,93.63
2018-04-02T04:11:10.500Z,100.17
2018-04-02T04:13:37.981Z,109.83
2018-04-02T04:16:05.449Z,125.63
2018-04-02T04:18:32.925Z,128.20
2018-04-02T04:21:00.422Z,147.63
2018-04-02T04:23:27.877Z,135.10
2018-04-02T04:25:55.383Z,154.20
2018-04-02T04:28:22.885Z,110.40
2018-04-02T04:30:50.365Z,136.43
2018-04-02T04:33:17.870Z,151.33
2018-04-02T04:35:45.333Z,136.33
2018-04-02T04:38:12.828Z,124.10
2018-04-02T04:40:40.288Z,121.97
2018-04-02T04:43:07.778Z,118.10
2018-04-02T04:45:35.266Z,140.13
2018-04-02T04:48:02.763Z,123.60
2018-04-02T04:50:30.250Z,127.03
2018-04-02T04:52:57.728Z,126.00
2018-04-02T04:55:25.209Z,127.03
2018-04-02T04:57:52.688Z,109.77
2018-04-02T05:00:20.185Z,128.33
2018-04-02T05:02:47.669Z,105.90
2018-04-02T05:05:15.160Z,115.03
2018-04-02T05:07:42.621Z,129.90
2018-04-02T05:10:10.111Z,134.30
2018-04-02T05:12:37.576Z,142.67
2018-04-02T05:15:05.069Z,130.37
2018-04-02T05:17:32.574Z,123.60
2018-04-02T05:20:00.110Z,102.60
2018-04-02T05:22:27.617Z,143.97
2018-04-02T05:24:55.155Z,111.73
2018-04-02T05:27:22.643Z,125.10
2018-04-02T05:29:50.109Z,117.57
2018-04-02T05:32:17.584Z,106.33
2018-04-02T05:34:45.849Z,104.97
2018-04-02T05:37:13.318Z,113.97
2018-04-02T05:39:40.823Z,116.73
2018-04-02T05:42:08.256Z,94.67
2018-04-02T05:44:35.804Z,116.17
2018-04-02T05:47:04.477Z,106.40
2018-04-02T05:49:32.094Z,104.30
2018-04-02T05:51:59.592Z,86.97
2018-04-02T05:54:27.065Z,99.00
2018-04-02T05:56:54.586Z,103.50
2018-04-02T05:59:22.059Z,109.03
2018-04-02T06:01:49.554Z,129.80
2018-04-02T06:04:17.844Z,126.07
2018-04-02T06:06:45.323Z,124.13
2018-04-02T06:09:12.805Z,130.50
2018-04-02T06:11:41.360Z,128.93
2018-04-02T06:14:08.873Z,134.83
2018-04-02T06:16:37.133Z,111.37
2018-04-02T06:19:04.666Z,136.67
2018-04-02T06:21:32.143Z,156.57
2018-04-02T06:23:59.625Z,139.30
2018-04-02T06:26:27.129Z,130.63
2018-04-02T06:28:54.634Z,153.53
2018-04-02T06:31:22.134Z,113.17
2018-04-02T06:33:49.609Z,127.33
2018-04-02T06:36:17.092Z,121.13
2018-04-02T06:38:44.612Z,126.27
2018-04-02T06:41:12.079Z,118.77
2018-04-02T06:43:39.548Z,85.40
2018-04-02T06:46:07.038Z,115.40
2018-04-02T06:48:34.529Z,92.10
2018-04-02T06:51:02.777Z,135.77
2018-04-02T06:53:30.242Z,55.40
2018-04-02T06:55:58.496Z,164.00
2018-04-02T06:58:25.990Z,99.60
2018-04-02T07:00:54.217Z,137.33
2018-04-02T07:03:21.705Z,121.07
2018-04-02T07:05:49.952Z,157.73
2018-04-02T07:08:17.417Z,137.63
2018-04-02T07:10:44.901Z,132.60
2018-04-02T07:13:12.398Z,135.23
2018-04-02T07:15:39.852Z,119.90
2018-04-02T07:18:08.092Z,120.17
2018-04-02T07:20:35.549Z,93.63
2018-04-02T07:23:03.062Z,137.90
2018-04-02T07:25:31.314Z,151.60
2018-04-02T07:27:59.574Z,146.63
2018-04-02T07:30:27.870Z,149.17
2018-04-02T07:32:55.388Z,127.13
2018-04-02T07:35:22.899Z,113.80
2018-04-02T07:37:50.371Z,150.97
2018-04-02T07:40:17.918Z,111.63
2018-04-02T07:42:45.378Z,149.70
2018-04-02T07:45:12.877Z,127.03
2018-04-02T07:47:40.324Z,92.63
2018-04-02T07:50:07.781Z,107.07
2018-04-02T07:52:35.256Z,137.97
2018-04-02T07:55:02.741Z,105.90
2018-04-02T07:57:30.210Z,137.83
2018-04-02T07:59:57.690Z,128.17
2018-04-02T08:02:25.144Z,122.40
2018-04-02T08:04:52.626Z,122.83
2018-04-02T08:07:20.081Z,110.13
2018-04-02T08:09:47.613Z,134.67
2018-04-02T08:12:15.095Z,108.10
2018-04-02T08:14:42.553Z,129.40
2018-04-02T08:17:10.036Z,116.27
2018-04-02T08:19:37.533Z,108.60
2018-04-02T08:22:04.984Z,121.73
2018-04-02T08:24:33.219Z,109.63
2018-04-02T08:27:00.702Z,115.97
2018-04-02T08:29:28.156Z,108.33
2018-04-02T08:31:55.642Z,99.10
2018-04-02T08:34:23.084Z,91.37
2018-04-02T08:36:50.594Z,88.07
2018-04-02T08:39:18.113Z,92.20
2018-04-02T08:41:46.338Z,95.47
2018-04-02T08:44:13.840Z,95.93
2018-04-02T08:46:41.325Z,82.57
2018-04-02T08:49:08.824Z,98.63
2018-04-02T08:51:36.308Z,88.33
2018-04-02T08:54:03.785Z,75.77
2018-04-02T08:56:31.252Z,101.57
2018-04-02T08:58:58.734Z,95.33
2018-04-02T09:01:26.206Z,79.33
2018-04-02T09:03:53.698Z,81.53
2018-04-02T09:06:21.157Z,90.47
2018-04-02T09:08:48.641Z,88.07
2018-04-02T09:11:16.906Z,88.03
2018-04-02T09:13:44.360Z,88.33
2018-04-02T09:16:11.817Z,75.47
2018-04-02T09:18:40.069Z,74.90
2018-04-02T09:21:07.525Z,72.70
2018-04-02T09:23:34.998Z,71.87
2018-04-02T09:26:02.494Z,73.03
2018-04-02T09:28:29.945Z,53.00
2018-04-02T09:30:58.169Z,70.40
2018-04-02T09:33:25.648Z,73.80
2018-04-02T09:35:53.117Z,71.13
2018-04-02T09:38:20.601Z,54.30
2018-04-02T09:40:48.098Z,49.63
2018-04-02T09:43:15.557Z,42.80
2018-04-02T09:45:43.005Z,58.77
2018-04-02T09:48:10.487Z,32.80
2018-04-02T09:50:37.948Z,46.80
2018-04-02T09:53:05.420Z,48.90
2018-04-02T09:55:32.889Z,53.17
2018-04-02T09:58:00.374Z,49.60
2018-04-02T10:00:33.914Z,56.30
2018-04-02T10:03:01.410Z,52.67
2018-04-02T10:05:31.309Z,48.63
2018-04-02T10:07:58.789Z,45.83
2018-04-02T10:10:27.113Z,45.73
2018-04-02T10:12:54.484Z,42.90
2018-04-02T10:15:21.962Z,44.00
2018-04-02T10:17:49.429Z,40.40
2018-04-02T10:20:16.910Z,38.37
2018-04-02T10:22:44.409Z,41.37
2018-04-02T10:25:11.865Z,46.20
2018-04-02T10:27:40.129Z,41.20
2018-04-02T10:30:07.596Z,48.80
2018-04-02T10:32:35.857Z,47.43
2018-04-02T10:35:03.314Z,39.43
2018-04-02T10:37:30.778Z,35.00
2018-04-02T10:39:58.281Z,37.70
2018-04-02T10:42:25.810Z,34.80
2018-04-02T10:44:53.194Z,43.93
2018-04-02T10:47:20.675Z,33.60
2018-04-02T10:49:48.941Z,39.33
2018-04-02T10:52:17.186Z,37.83
2018-04-02T10:54:44.641Z,37.13
2018-04-02T10:57:12.129Z,37.43
2018-04-02T10:59:39.603Z,40.43
2018-04-02T11:02:07.825Z,33.97
2018-04-02T11:04:35.320Z,49.87
2018-04-02T11:07:02.793Z,40.27
2018-04-02T11:09:31.026Z,42.23
2018-04-02T11:11:58.504Z,36.97
2018-04-02T11:14:25.964Z,34.07
2018-04-02T11:16:54.961Z,37.72
2018-04-02T11:19:22.413Z,30.87
2018-04-02T11:21:49.892Z,31.80
2018-04-02T11:24:18.111Z,34.50
2018-04-02T11:26:45.597Z,24.90
2018-04-02T11:29:13.053Z,30.83
2018-04-02T11:31:40.537Z,29.03
2018-04-02T11:34:07.998Z,29.20
2018-04-02T11:36:35.476Z,28.07
2018-04-02T11:39:02.959Z,29.87
2018-04-02T11:41:30.448Z,34.40
2018-04-02T11:43:57.931Z,26.20
2018-04-02T11:46:26.169Z,26.63
2018-04-02T11:48:53.673Z,23.90
2018-04-02T11:51:21.922Z,25.60
2018-04-02T11:53:49.389Z,30.67
2018-04-02T11:56:16.865Z,32.60
2018-04-02T11:58:45.114Z,32.03
2018-04-02T12:01:12.578Z,25.80
2018-04-02T12:03:40.062Z,21.00
2018-04-02T12:06:08.294Z,20.27
2018-04-02T12:08:35.791Z,26.30
2018-04-02T12:11:04.017Z,28.37
2018-04-02T12:13:31.505Z,19.40
2018-04-02T12:15:58.992Z,21.27
2018-04-02T12:18:26.457Z,21.97
2018-04-02T12:20:53.988Z,24.70
2018-04-02T12:23:21.436Z,20.77
2018-04-02T12:25:48.896Z,29.33
2018-04-02T12:28:16.352Z,25.57
2018-04-02T12:30:43.836Z,22.03
2018-04-02T12:33:11.517Z,22.13
2018-04-02T12:35:38.808Z,24.40
2018-04-02T12:38:06.278Z,22.63
2018-04-02T12:40:33.741Z,23.83
2018-04-02T12:43:01.227Z,21.87
2018-04-02T12:45:29.460Z,18.10
2018-04-02T12:47:56.949Z,22.00
2018-04-02T12:50:25.189Z,21.40
2018-04-02T12:52:52.681Z,20.63
2018-04-02T12:55:20.140Z,23.77
2018-04-02T12:57:47.648Z,19.33
2018-04-02T13:00:15.102Z,20.03
2018-04-02T13:02:42.561Z,18.07
2018-04-02T13:05:10.056Z,12.10
2018-04-02T13:07:37.534Z,11.47
2018-04-02T13:10:05.144Z,12.50
2018-04-02T13:12:32.591Z,14.77
2018-04-02T13:15:00.065Z,12.37
2018-04-02T13:17:27.522Z,12.70
2018-04-02T13:19:54.996Z,15.87
2018-04-02T13:22:22.470Z,11.70
2018-04-02T13:24:49.958Z,8.60
2018-04-02T13:27:17.414Z,10.20
2018-04-02T13:29:44.876Z,7.87
2018-04-02T13:32:12.350Z,8.17
2018-04-02T13:34:39.816Z,11.00
2018-04-02T13:37:07.293Z,10.23
2018-04-02T13:39:34.810Z,8.53
2018-04-02T13:42:03.059Z,7.37
2018-04-02T13:44:30.525Z,10.43
2018-04-02T13:46:58.041Z,11.37
2018-04-02T13:49:25.493Z,11.03
2018-04-02T13:51:52.955Z,7.80
2018-04-02T13:54:20.431Z,23.33
2018-04-02T13:56:47.909Z,10.17
2018-04-02T13:59:15.386Z,13.37
2018-04-02T14:01:43.650Z,9.30
2018-04-02T14:04:11.123Z,7.50
2018-04-02T14:06:38.582Z,10.33
2018-04-02T14:09:06.186Z,15.03
2018-04-02T14:11:33.666Z,10.57
2018-04-02T14:14:01.126Z,7.13
2018-04-02T14:16:28.601Z,6.73
2018-04-02T14:18:56.070Z,13.33
2018-04-02T14:21:23.547Z,6.27
2018-04-02T14:23:51.024Z,12.93
2018-04-02T14:26:18.479Z,9.83
2018-04-02T14:28:45.940Z,5.83
2018-04-02T14:31:13.409Z,8.13
2018-04-02T14:33:40.880Z,7.60
2018-04-02T14:36:08.349Z,8.33
2018-04-02T14:38:35.860Z,6.90
2018-04-02T14:41:03.338Z,7.00
2018-04-02T14:43:30.796Z,7.27
2018-04-02T14:45:58.261Z,6.73
2018-04-02T14:48:25.730Z,7.77
2018-04-02T14:50:53.264Z,7.97
2018-04-02T14:53:20.738Z,14.47
2018-04-02T14:55:48.225Z,5.80
2018-04-02T14:58:15.680Z,9.13
2018-04-02T15:00:43.149Z,4.70
2018-04-02T15:03:10.608Z,6.73
2018-04-02T15:05:38.085Z,5.87
2018-04-02T15:08:06.296Z,6.30
2018-04-02T15:10:33.776Z,7.97
2018-04-02T15:13:01.248Z,6.20
2018-04-02T15:15:28.817Z,6.70
2018-04-02T15:17:56.277Z,8.10
2018-04-02T15:20:23.731Z,7.43
2018-04-02T15:22:51.233Z,11.30
2018-04-02T15:25:18.717Z,22.70
2018-04-02T15:27:46.203Z,18.60
2018-04-02T15:30:13.716Z,54.87
2018-04-02T15:32:41.160Z,18.97
2018-04-02T15:35:08.655Z,17.93
2018-04-02T15:37:36.998Z,14.03
2018-04-02T15:40:04.478Z,18.50
2018-04-02T15:42:31.932Z,12.00
2018-04-02T15:44:59.414Z,6.10
2018-04-02T15:47:26.890Z,15.13
2018-04-02T15:49:54.374Z,15.80
2018-04-02T15:52:22.593Z,27.33
2018-04-02T15:54:50.081Z,8.90
2018-04-02T15:57:17.549Z,11.20
2018-04-02T15:59:45.008Z,13.43
2018-04-02T16:02:12.493Z,11.73
2018-04-02T16:04:40.721Z,18.50
2018-04-02T16:07:08.197Z,13.90
2018-04-02T16:09:35.649Z,18.73
2018-04-02T16:12:03.120Z,16.60
2018-04-02T16:14:30.573Z,10.17
2018-04-02T16:16:58.049Z,22.67
2018-04-02T16:19:26.285Z,15.17
2018-04-02T16:21:53.757Z,18.50
2018-04-02T16:24:21.226Z,21.00
2018-04-02T16:26:48.693Z,14.40
2018-04-02T16:29:16.970Z,18.50
2018-04-02T16:31:45.213Z,14.50
2018-04-02T16:34:12.687Z,55.27
2018-04-02T16:36:40.166Z,14.40
2018-04-02T16:39:08.418Z,15.27
2018-04-02T16:41:35.907Z,27.70
2018-04-02T16:44:04.128Z,21.57
2018-04-02T16:46:31.626Z,30.33
2018-04-02T16:48:59.861Z,226.37
2018-04-02T16:51:27.337Z,22.53
2018-04-02T16:53:54.789Z,11.97
2018-04-02T16:56:22.270Z,9.80
2018-04-02T16:58:49.766Z,14.50
2018-04-02T17:01:17.247Z,10.07
2018-04-02T17:03:44.708Z,12.10
2018-04-02T17:06:12.263Z,11.90
2018-04-02T17:08:39.729Z,6.47
2018-04-02T17:11:07.269Z,11.80
2018-04-02T17:13:34.753Z,15.37
2018-04-02T17:16:02.209Z,13.07
2018-04-02T17:18:29.696Z,6.97
2018-04-02T17:20:57.161Z,10.27
2018-04-02T17:23:24.638Z,13.97
2018-04-02T17:25:52.888Z,10.93
2018-04-02T17:28:20.469Z,10.40
2018-04-02T17:30:48.712Z,10.03
2018-04-02T17:33:16.192Z,11.43
2018-04-02T17:35:43.673Z,12.37
2018-04-02T17:38:11.897Z,6.53
2018-04-02T17:40:39.370Z,12.20
2018-04-02T17:43:06.837Z,7.77
2018-04-02T17:45:34.316Z,6.13
2018-04-02T17:48:02.587Z,11.33
2018-04-02T17:50:30.818Z,8.50
2018-04-02T17:52:58.304Z,5.17
2018-04-02T17:55:25.789Z,8.30
2018-04-02T17:57:54.001Z,7.10
2018-04-02T18:00:21.490Z,6.10
2018-04-02T18:02:48.986Z,17.03
2018-04-02T18:05:17.240Z,12.70
2018-04-02T18:07:44.803Z,11.20
2018-04-02T18:10:12.232Z,11.20
2018-04-02T18:12:39.748Z,10.20
2018-04-02T18:15:07.241Z,13.13
2018-04-02T18:17:34.765Z,15.63
2018-04-02T18:20:02.225Z,14.07
2018-04-02T18:22:29.696Z,12.60
2018-04-02T18:24:57.156Z,14.53
2018-04-02T18:27:24.656Z,17.37
2018-04-02T18:29:52.136Z,10.40
2018-04-02T18:32:19.627Z,6.77
2018-04-02T18:34:47.069Z,8.80
2018-04-02T18:37:14.577Z,16.53
2018-04-02T18:39:42.073Z,10.17
2018-04-02T18:42:10.346Z,8.07
2018-04-02T18:44:38.590Z,10.73
2018-04-02T18:47:06.065Z,8.77
2018-04-02T18:49:34.575Z,13.13
2018-04-02T18:52:02.817Z,11.77
2018-04-02T18:54:31.081Z,12.57
2018-04-02T18:56:58.541Z,8.63
2018-04-02T18:59:26.036Z,12.83
2018-04-02T19:01:54.273Z,7.40
2018-04-02T19:04:21.748Z,15.90
2018-04-02T19:06:49.251Z,8.00
2018-04-02T19:09:16.708Z,7.83
2018-04-02T19:11:44.179Z,16.27
2018-04-02T19:14:11.681Z,9.27
2018-04-02T19:16:39.177Z,8.20
2018-04-02T19:19:06.750Z,10.13
2018-04-02T19:21:34.217Z,17.20
2018-04-02T19:24:01.680Z,6.57
2018-04-02T19:26:29.164Z,7.27
2018-04-02T19:28:56.621Z,7.60
2018-04-02T19:31:24.093Z,7.77
2018-04-02T19:33:51.566Z,10.27
2018-04-02T19:36:19.064Z,8.10
2018-04-02T19:38:46.557Z,9.10
2018-04-02T19:41:14.029Z,13.07
2018-04-02T19:43:41.496Z,17.33
2018-04-02T19:46:09.006Z,14.83
2018-04-02T19:48:36.469Z,15.13
2018-04-02T19:51:03.925Z,17.90
2018-04-02T19:53:31.406Z,12.53
2018-04-02T19:55:58.894Z,7.80
2018-04-02T19:58:26.353Z,7.17
2018-04-02T20:00:53.808Z,7.83
2018-04-02T20:03:21.357Z,8.20
2018-04-02T20:05:48.889Z,7.57
2018-04-02T20:08:16.394Z,15.83
2018-04-02T20:10:44.649Z,11.47
2018-04-02T20:13:12.142Z,7.90
2018-04-02T20:15:39.574Z,6.27
2018-04-02T20:18:07.070Z,10.63
2018-04-02T20:20:34.564Z,10.83
2018-04-02T20:23:02.113Z,10.07
2018-04-02T20:25:30.298Z,12.47
2018-04-02T20:27:57.783Z,12.93
2018-04-02T20:30:25.249Z,11.97
2018-04-02T20:32:53.489Z,17.23
2018-04-02T20:35:20.960Z,12.50
2018-04-02T20:37:48.425Z,7.50
2018-04-02T20:40:15.924Z,10.67
2018-04-02T20:42:43.409Z,11.87
2018-04-02T20:45:10.881Z,5.97
2018-04-02T20:47:38.353Z,3.70
2018-04-02T20:50:05.830Z,8.03
2018-04-02T20:52:33.292Z,7.17
2018-04-02T20:55:00.772Z,8.40
2018-04-02T20:57:28.262Z,8.50
2018-04-02T20:59:55.721Z,7.47
2018-04-02T21:02:23.177Z,13.50
2018-04-02T21:04:50.653Z,12.53
2018-04-02T21:07:18.108Z,10.60
2018-04-02T21:09:45.633Z,10.13
2018-04-02T21:12:13.113Z,8.30
2018-04-02T21:14:40.585Z,11.07
2018-04-02T21:17:08.036Z,8.37
2018-04-02T21:19:35.516Z,11.90
2018-04-02T21:22:03.032Z,17.90
2018-04-02T21:24:30.481Z,10.70
2018-04-02T21:26:57.938Z,8.27
2018-04-02T21:29:25.447Z,6.40
2018-04-02T21:31:52.908Z,11.10
2018-04-02T21:34:20.366Z,7.57
2018-04-02T21:36:47.832Z,5.30
2018-04-02T21:39:15.314Z,8.00
2018-04-02T21:41:43.572Z,9.40
2018-04-02T21:44:11.048Z,6.77
2018-04-02T21:46:38.513Z,9.70
2018-04-02T21:49:06.007Z,13.00
2018-04-02T21:51:33.466Z,12.07
2018-04-02T21:54:00.952Z,8.47
2018-04-02T21:56:28.414Z,5.80
2018-04-02T21:58:55.891Z,7.90
2018-04-02T22:01:23.377Z,14.70
2018-04-02T22:03:50.847Z,10.30
2018-04-02T22:06:30.241Z,6.50
2018-04-02T22:08:58.538Z,9.60
2018-04-02T22:11:26.770Z,9.83
2018-04-02T22:13:54.232Z,6.63
2018-04-02T22:16:21.720Z,8.63
2018-04-02T22:18:49.971Z,6.40
2018-04-02T22:21:17.436Z,7.40
2018-04-02T22:23:45.661Z,16.43
2018-04-02T22:26:13.161Z,7.07
2018-04-02T22:28:40.645Z,13.27
2018-04-02T22:31:08.903Z,8.60
2018-04-02T22:33:37.154Z,6.97
2018-04-02T22:36:04.615Z,12.23
2018-04-02T22:38:32.130Z,7.40
2018-04-02T22:40:59.585Z,6.93
2018-04-02T22:43:27.057Z,4.93
2018-04-02T22:45:54.518Z,6.63
2018-04-02T22:48:22.879Z,10.83
2018-04-02T22:50:50.409Z,5.63
2018-04-02T22:53:17.907Z,9.03
2018-04-02T22:55:45.385Z,12.40
2018-04-02T22:58:12.842Z,9.30
2018-04-02T23:00:40.318Z,11.30
2018-04-02T23:03:07.780Z,5.17
2018-04-02T23:05:35.253Z,6.07
2018-04-02T23:08:02.732Z,5.23
2018-04-02T23:10:30.196Z,9.63
2018-04-02T23:12:58.447Z,5.50
2018-04-02T23:15:25.897Z,7.20
2018-04-02T23:17:53.366Z,4.40
2018-04-02T23:20:20.861Z,4.23
2018-04-02T23:22:52.044Z,5.53
2018-04-02T23:25:19.509Z,6.07
2018-04-02T23:27:46.980Z,6.50
2018-04-02T23:30:14.449Z,8.37
2018-04-02T23:32:41.936Z,5.20
2018-04-02T23:35:09.394Z,3.43
2018-04-02T23:37:36.872Z,5.17
2018-04-02T23:40:04.330Z,3.60
2018-04-02T23:42:31.797Z,6.60
2018-04-02T23:44:59.285Z,4.77
2018-04-02T23:47:26.760Z,3.80
2018-04-02T23:49:54.233Z,4.30
2018-04-02T23:52:21.709Z,4.00
2018-04-02T23:54:49.172Z,2.90
2018-04-02T23:57:16.654Z,4.03
2018-04-02T23:59:44.149Z,6.30
